sensor_id;sensor_type;location;lat;lon;timestamp;pressure;altitude;pressure_sealevel;temperature;humidity
53270;BME280;39159;45.634;9.420;2023-03-23T00:02:27;98776.03;;;11.47;67.56
53270;BME280;39159;45.634;9.420;2023-03-23T00:04:52;98778.13;;;11.50;67.52
53270;BME280;39159;45.634;9.420;2023-03-23T00:07:19;98781.00;;;11.53;67.64
53270;BME280;39159;45.634;9.420;2023-03-23T00:09:47;98784.56;;;11.54;67.83
53270;BME280;39159;45.634;9.420;2023-03-23T00:12:18;98787.44;;;11.49;67.84
53270;BME280;39159;45.634;9.420;2023-03-23T00:14:43;98784.06;;;11.43;67.80
53270;BME280;39159;45.634;9.420;2023-03-23T00:17:10;98785.97;;;11.43;67.53
53270;BME280;39159;45.634;9.420;2023-03-23T00:19:38;98790.13;;;11.31;68.03
53270;BME280;39159;45.634;9.420;2023-03-23T00:22:14;98783.50;;;11.24;68.62
53270;BME280;39159;45.634;9.420;2023-03-23T00:24:41;98785.94;;;11.25;68.97
53270;BME280;39159;45.634;9.420;2023-03-23T00:27:07;98783.66;;;11.18;68.81
53270;BME280;39159;45.634;9.420;2023-03-23T00:29:34;98771.28;;;11.12;69.79
53270;BME280;39159;45.634;9.420;2023-03-23T00:32:00;98775.56;;;11.05;69.59
53270;BME280;39159;45.634;9.420;2023-03-23T00:34:27;98775.72;;;10.99;69.38
53270;BME280;39159;45.634;9.420;2023-03-23T00:36:57;98782.31;;;10.98;69.93
53270;BME280;39159;45.634;9.420;2023-03-23T00:39:24;98775.72;;;10.99;69.48
53270;BME280;39159;45.634;9.420;2023-03-23T00:45:09;98782.50;;;11.11;68.72
53270;BME280;39159;45.634;9.420;2023-03-23T00:47:37;98777.38;;;11.18;68.88
53270;BME280;39159;45.634;9.420;2023-03-23T00:50:04;98776.72;;;11.12;68.24
53270;BME280;39159;45.634;9.420;2023-03-23T00:52:30;98775.56;;;11.05;68.57
53270;BME280;39159;45.634;9.420;2023-03-23T00:54:56;98769.16;;;11.01;69.08
53270;BME280;39159;45.634;9.420;2023-03-23T00:57:21;98760.28;;;10.95;68.59
53270;BME280;39159;45.634;9.420;2023-03-23T00:59:52;98767.66;;;10.94;69.29
53270;BME280;39159;45.634;9.420;2023-03-23T01:02:17;98753.53;;;10.92;69.53
53270;BME280;39159;45.634;9.420;2023-03-23T01:04:44;98756.41;;;10.87;69.94
53270;BME280;39159;45.634;9.420;2023-03-23T01:07:10;98755.22;;;10.79;70.60
53270;BME280;39159;45.634;9.420;2023-03-23T01:09:38;98752.28;;;10.67;71.26
53270;BME280;39159;45.634;9.420;2023-03-23T01:15:31;98744.31;;;10.48;73.19
53270;BME280;39159;45.634;9.420;2023-03-23T01:17:57;98746.69;;;10.41;73.57
53270;BME280;39159;45.634;9.420;2023-03-23T01:20:23;98731.25;;;10.36;73.81
53270;BME280;39159;45.634;9.420;2023-03-23T01:22:49;98732.84;;;10.37;74.46
53270;BME280;39159;45.634;9.420;2023-03-23T01:25:14;98735.06;;;10.35;74.38
53270;BME280;39159;45.634;9.420;2023-03-23T01:27:40;98731.25;;;10.36;75.16
53270;BME280;39159;45.634;9.420;2023-03-23T01:30:07;98730.31;;;10.41;74.30
53270;BME280;39159;45.634;9.420;2023-03-23T01:32:34;98722.13;;;10.41;74.33
53270;BME280;39159;45.634;9.420;2023-03-23T01:35:00;98721.50;;;10.44;74.17
53270;BME280;39159;45.634;9.420;2023-03-23T01:37:25;98725.50;;;10.47;73.88
53270;BME280;39159;45.634;9.420;2023-03-23T01:39:55;98719.09;;;10.43;73.52
53270;BME280;39159;45.634;9.420;2023-03-23T01:42:29;98719.41;;;10.41;73.64
53270;BME280;39159;45.634;9.420;2023-03-23T01:47:22;98720.16;;;10.33;74.29
53270;BME280;39159;45.634;9.420;2023-03-23T01:49:49;98722.06;;;10.32;74.84
53270;BME280;39159;45.634;9.420;2023-03-23T01:52:23;98715.00;;;10.31;74.98
53270;BME280;39159;45.634;9.420;2023-03-23T01:54:52;98714.19;;;10.31;74.35
53270;BME280;39159;45.634;9.420;2023-03-23T01:57:19;98718.63;;;10.27;73.78
53270;BME280;39159;45.634;9.420;2023-03-23T01:59:49;98708.06;;;10.25;74.02
53270;BME280;39159;45.634;9.420;2023-03-23T02:02:17;98708.53;;;10.27;73.81
53270;BME280;39159;45.634;9.420;2023-03-23T02:04:45;98700.66;;;10.26;74.21
53270;BME280;39159;45.634;9.420;2023-03-23T02:07:12;98705.31;;;10.25;74.86
53270;BME280;39159;45.634;9.420;2023-03-23T02:09:39;98703.69;;;10.24;75.22
53270;BME280;39159;45.634;9.420;2023-03-23T02:12:05;98705.63;;;10.24;76.32
53270;BME280;39159;45.634;9.420;2023-03-23T02:14:31;98697.44;;;10.24;76.61
53270;BME280;39159;45.634;9.420;2023-03-23T02:20:17;98704.56;;;10.33;76.10
53270;BME280;39159;45.634;9.420;2023-03-23T02:23:07;98697.22;;;10.34;76.04
53270;BME280;39159;45.634;9.420;2023-03-23T02:34:19;98697.72;;;10.36;77.22
53270;BME280;39159;45.634;9.420;2023-03-23T02:39:23;98703.69;;;10.24;78.89
53270;BME280;39159;45.634;9.420;2023-03-23T02:41:53;98698.88;;;10.21;79.46
53270;BME280;39159;45.634;9.420;2023-03-23T02:44:22;98701.09;;;10.19;79.88
53270;BME280;39159;45.634;9.420;2023-03-23T02:46:48;98703.63;;;10.15;80.41
53270;BME280;39159;45.634;9.420;2023-03-23T02:49:17;98700.56;;;10.08;82.32
53270;BME280;39159;45.634;9.420;2023-03-23T02:51:44;98699.56;;;10.04;82.93
53270;BME280;39159;45.634;9.420;2023-03-23T02:54:13;98698.75;;;10.04;83.76
53270;BME280;39159;45.634;9.420;2023-03-23T02:56:40;98700.19;;;10.01;84.65
53270;BME280;39159;45.634;9.420;2023-03-23T02:59:06;98700.69;;;10.03;84.32
53270;BME280;39159;45.634;9.420;2023-03-23T03:04:00;98701.69;;;10.07;84.03
53270;BME280;39159;45.634;9.420;2023-03-23T03:06:35;98699.56;;;10.04;85.38
53270;BME280;39159;45.634;9.420;2023-03-23T03:09:07;98702.91;;;10.01;84.79
53270;BME280;39159;45.634;9.420;2023-03-23T03:11:36;98696.16;;;9.99;86.10
53270;BME280;39159;45.634;9.420;2023-03-23T03:14:10;98696.75;;;9.95;85.76
53270;BME280;39159;45.634;9.420;2023-03-23T03:19:22;98694.28;;;10.08;83.86
53270;BME280;39159;45.634;9.420;2023-03-23T03:21:51;98692.56;;;10.12;82.85
53270;BME280;39159;45.634;9.420;2023-03-23T03:24:20;98700.91;;;10.15;84.06
53270;BME280;39159;45.634;9.420;2023-03-23T03:26:50;98704.78;;;10.14;84.09
53270;BME280;39159;45.634;9.420;2023-03-23T03:29:20;98708.59;;;10.13;83.46
53270;BME280;39159;45.634;9.420;2023-03-23T03:31:47;98702.19;;;10.09;83.39
53270;BME280;39159;45.634;9.420;2023-03-23T03:34:15;98709.84;;;10.07;84.91
53270;BME280;39159;45.634;9.420;2023-03-23T03:36:44;98710.16;;;10.06;85.14
53270;BME280;39159;45.634;9.420;2023-03-23T03:39:12;98713.19;;;10.04;85.27
53270;BME280;39159;45.634;9.420;2023-03-23T03:41:40;98715.13;;;10.04;84.08
53270;BME280;39159;45.634;9.420;2023-03-23T03:44:06;98713.19;;;10.04;83.82
53270;BME280;39159;45.634;9.420;2023-03-23T03:46:33;98712.69;;;10.02;83.79
53270;BME280;39159;45.634;9.420;2023-03-23T03:49:01;98717.84;;;10.04;83.52
53270;BME280;39159;45.634;9.420;2023-03-23T03:51:28;98711.59;;;10.03;82.78
53270;BME280;39159;45.634;9.420;2023-03-23T03:53:53;98710.47;;;10.04;82.29
53270;BME280;39159;45.634;9.420;2023-03-23T03:56:19;98708.53;;;10.05;82.69
53270;BME280;39159;45.634;9.420;2023-03-23T03:58:47;98713.81;;;10.01;84.10
53270;BME280;39159;45.634;9.420;2023-03-23T04:01:14;98716.53;;;10.01;83.67
53270;BME280;39159;45.634;9.420;2023-03-23T04:03:40;98712.69;;;10.02;83.86
53270;BME280;39159;45.634;9.420;2023-03-23T04:06:07;98717.34;;;10.02;83.68
53270;BME280;39159;45.634;9.420;2023-03-23T04:08:34;98716.84;;;10.00;83.64
53270;BME280;39159;45.634;9.420;2023-03-23T04:11:00;98722.13;;;9.96;85.25
53270;BME280;39159;45.634;9.420;2023-03-23T04:13:26;98716.97;;;9.94;84.72
53270;BME280;39159;45.634;9.420;2023-03-23T04:15:52;98724.34;;;9.94;83.60
53270;BME280;39159;45.634;9.420;2023-03-23T04:18:18;98720.50;;;9.95;83.73
53270;BME280;39159;45.634;9.420;2023-03-23T04:20:46;98727.88;;;9.94;84.85
53270;BME280;39159;45.634;9.420;2023-03-23T04:23:16;98730.59;;;9.94;84.14
53270;BME280;39159;45.634;9.420;2023-03-23T04:25:48;98729.81;;;9.94;83.92
53270;BME280;39159;45.634;9.420;2023-03-23T04:28:15;98732.69;;;9.98;83.74
53270;BME280;39159;45.634;9.420;2023-03-23T04:30:45;98732.19;;;9.95;84.00
53270;BME280;39159;45.634;9.420;2023-03-23T04:33:11;98736.34;;;9.93;82.90
53270;BME280;39159;45.634;9.420;2023-03-23T04:35:41;98735.84;;;9.91;83.16
53270;BME280;39159;45.634;9.420;2023-03-23T04:38:08;98731.22;;;9.91;82.73
53270;BME280;39159;45.634;9.420;2023-03-23T04:40:38;98737.78;;;9.90;84.06
53270;BME280;39159;45.634;9.420;2023-03-23T04:43:05;98732.34;;;9.90;83.86
53270;BME280;39159;45.634;9.420;2023-03-23T04:45:32;98738.91;;;9.89;84.82
53270;BME280;39159;45.634;9.420;2023-03-23T04:47:58;98739.00;;;9.84;85.79
53270;BME280;39159;45.634;9.420;2023-03-23T04:50:28;98750.72;;;9.85;84.95
53270;BME280;39159;45.634;9.420;2023-03-23T04:52:56;98753.69;;;9.74;86.12
53270;BME280;39159;45.634;9.420;2023-03-23T04:55:23;98753.81;;;9.69;86.63
53270;BME280;39159;45.634;9.420;2023-03-23T04:57:49;98747.03;;;9.67;85.90
53270;BME280;39159;45.634;9.420;2023-03-23T05:00:15;98758.25;;;9.65;86.43
53270;BME280;39159;45.634;9.420;2023-03-23T05:02:42;98750.59;;;9.67;88.06
53270;BME280;39159;45.634;9.420;2023-03-23T05:05:10;98755.69;;;9.83;93.94
53270;BME280;39159;45.634;9.420;2023-03-23T05:07:41;98758.38;;;9.96;93.93
53270;BME280;39159;45.634;9.420;2023-03-23T05:10:08;98751.72;;;10.11;92.63
53270;BME280;39159;45.634;9.420;2023-03-23T05:12:35;98751.50;;;10.22;89.15
53270;BME280;39159;45.634;9.420;2023-03-23T05:15:01;98752.28;;;10.22;85.30
53270;BME280;39159;45.634;9.420;2023-03-23T05:17:26;98755.50;;;10.24;86.27
53270;BME280;39159;45.634;9.420;2023-03-23T05:19:52;98749.69;;;10.17;84.94
53270;BME280;39159;45.634;9.420;2023-03-23T05:22:18;98752.91;;;10.19;86.22
53270;BME280;39159;45.634;9.420;2023-03-23T05:24:46;98745.91;;;10.27;85.72
53270;BME280;39159;45.634;9.420;2023-03-23T05:27:12;98748.06;;;10.30;84.30
53270;BME280;39159;45.634;9.420;2023-03-23T05:29:40;98743.69;;;10.29;83.61
53270;BME280;39159;45.634;9.420;2023-03-23T05:32:08;98749.16;;;10.29;84.85
53270;BME280;39159;45.634;9.420;2023-03-23T05:34:35;98748.56;;;10.32;84.97
53270;BME280;39159;45.634;9.420;2023-03-23T05:37:01;98740.38;;;10.32;84.27
53270;BME280;39159;45.634;9.420;2023-03-23T05:39:29;98742.31;;;10.40;85.03
53270;BME280;39159;45.634;9.420;2023-03-23T05:41:55;98748.16;;;10.47;83.20
53270;BME280;39159;45.634;9.420;2023-03-23T05:44:21;98751.06;;;10.51;81.95
53270;BME280;39159;45.634;9.420;2023-03-23T05:46:47;98752.53;;;10.57;83.09
53270;BME280;39159;45.634;9.420;2023-03-23T05:49:14;98759.88;;;10.48;83.47
53270;BME280;39159;45.634;9.420;2023-03-23T05:51:44;98757.09;;;10.39;84.21
53270;BME280;39159;45.634;9.420;2023-03-23T05:54:11;98761.91;;;10.42;84.45
53270;BME280;39159;45.634;9.420;2023-03-23T05:56:37;98767.75;;;10.49;83.77
53270;BME280;39159;45.634;9.420;2023-03-23T05:59:03;98758.31;;;10.55;83.96
53270;BME280;39159;45.634;9.420;2023-03-23T06:01:29;98773.38;;;10.53;84.78
53270;BME280;39159;45.634;9.420;2023-03-23T06:03:54;98768.88;;;10.48;85.26
53270;BME280;39159;45.634;9.420;2023-03-23T06:06:25;98770.84;;;10.56;85.80
53270;BME280;39159;45.634;9.420;2023-03-23T06:08:50;98765.88;;;10.58;86.05
53270;BME280;39159;45.634;9.420;2023-03-23T06:11:16;98764.63;;;10.65;84.81
53270;BME280;39159;45.634;9.420;2023-03-23T06:13:42;98769.63;;;10.71;85.10
53270;BME280;39159;45.634;9.420;2023-03-23T06:16:08;98770.13;;;10.73;84.87
53270;BME280;39159;45.634;9.420;2023-03-23T06:18:34;98777.06;;;10.79;84.89
53270;BME280;39159;45.634;9.420;2023-03-23T06:21:05;98766.63;;;10.82;84.78
53270;BME280;39159;45.634;9.420;2023-03-23T06:23:31;98774.38;;;10.88;83.92
53270;BME280;39159;45.634;9.420;2023-03-23T06:25:59;98772.78;;;10.96;84.35
53270;BME280;39159;45.634;9.420;2023-03-23T06:28:25;98763.69;;;11.01;83.94
53270;BME280;39159;45.634;9.420;2023-03-23T06:30:50;98770.28;;;11.08;84.33
53270;BME280;39159;45.634;9.420;2023-03-23T06:33:16;98773.84;;;11.17;84.07
53270;BME280;39159;45.634;9.420;2023-03-23T06:35:42;98768.56;;;11.21;84.15
53270;BME280;39159;45.634;9.420;2023-03-23T06:38:09;98770.50;;;11.29;84.47
53270;BME280;39159;45.634;9.420;2023-03-23T06:40:34;98775.34;;;11.32;84.11
53270;BME280;39159;45.634;9.420;2023-03-23T06:43:02;98783.69;;;11.36;84.54
53270;BME280;39159;45.634;9.420;2023-03-23T06:45:29;98775.50;;;11.36;84.25
53270;BME280;39159;45.634;9.420;2023-03-23T06:47:55;98783.56;;;11.41;84.30
53270;BME280;39159;45.634;9.420;2023-03-23T06:50:20;98778.75;;;11.47;85.36
53270;BME280;39159;45.634;9.420;2023-03-23T06:52:47;98780.88;;;11.58;85.75
53270;BME280;39159;45.634;9.420;2023-03-23T06:55:14;98776.06;;;11.64;84.67
53270;BME280;39159;45.634;9.420;2023-03-23T06:57:40;98789.72;;;11.64;84.67
53270;BME280;39159;45.634;9.420;2023-03-23T07:00:06;98783.16;;;11.74;84.81
53270;BME280;39159;45.634;9.420;2023-03-23T07:02:40;98788.00;;;11.86;84.54
53270;BME280;39159;45.634;9.420;2023-03-23T07:05:07;98782.22;;;11.96;85.24
53270;BME280;39159;45.634;9.420;2023-03-23T07:07:32;98792.19;;;12.00;85.50
53270;BME280;39159;45.634;9.420;2023-03-23T07:09:58;98796.56;;;12.01;86.82
53270;BME280;39159;45.634;9.420;2023-03-23T07:12:24;98800.56;;;12.04;88.42
53270;BME280;39159;45.634;9.420;2023-03-23T07:14:49;98805.75;;;12.06;89.81
53270;BME280;39159;45.634;9.420;2023-03-23T07:17:15;98800.25;;;11.97;89.70
53270;BME280;39159;45.634;9.420;2023-03-23T07:19:40;98801.84;;;11.98;90.21
53270;BME280;39159;45.634;9.420;2023-03-23T07:22:07;98807.31;;;11.98;90.66
53270;BME280;39159;45.634;9.420;2023-03-23T07:24:33;98804.44;;;11.94;90.29
53270;BME280;39159;45.634;9.420;2023-03-23T07:27:00;98810.72;;;11.95;90.95
53270;BME280;39159;45.634;9.420;2023-03-23T07:29:26;98813.75;;;11.93;90.52
53270;BME280;39159;45.634;9.420;2023-03-23T07:31:52;98810.88;;;11.90;90.38
53270;BME280;39159;45.634;9.420;2023-03-23T07:34:18;98817.28;;;11.94;91.33
53270;BME280;39159;45.634;9.420;2023-03-23T07:36:45;98821.34;;;11.96;91.89
53270;BME280;39159;45.634;9.420;2023-03-23T07:39:12;98826.31;;;11.94;91.87
53270;BME280;39159;45.634;9.420;2023-03-23T07:41:38;98826.47;;;11.98;92.83
53270;BME280;39159;45.634;9.420;2023-03-23T07:44:05;98828.88;;;11.99;92.16
53270;BME280;39159;45.634;9.420;2023-03-23T07:46:31;98839.53;;;12.10;92.78
53270;BME280;39159;45.634;9.420;2023-03-23T07:48:57;98838.72;;;12.18;92.12
53270;BME280;39159;45.634;9.420;2023-03-23T07:51:23;98841.78;;;12.16;91.58
53270;BME280;39159;45.634;9.420;2023-03-23T07:53:49;98844.69;;;12.29;91.06
53270;BME280;39159;45.634;9.420;2023-03-23T07:56:15;98844.03;;;12.23;91.58
53270;BME280;39159;45.634;9.420;2023-03-23T07:58:45;98854.81;;;12.37;90.99
53270;BME280;39159;45.634;9.420;2023-03-23T08:01:10;98857.56;;;12.46;90.13
53270;BME280;39159;45.634;9.420;2023-03-23T08:03:36;98850.47;;;12.53;88.87
53270;BME280;39159;45.634;9.420;2023-03-23T08:06:03;98860.13;;;12.59;88.02
53270;BME280;39159;45.634;9.420;2023-03-23T08:08:29;98869.00;;;12.65;87.85
53270;BME280;39159;45.634;9.420;2023-03-23T08:10:57;98852.88;;;12.63;88.06
53270;BME280;39159;45.634;9.420;2023-03-23T08:13:22;98852.88;;;12.63;88.35
53270;BME280;39159;45.634;9.420;2023-03-23T08:15:48;98850.28;;;12.76;86.43
53270;BME280;39159;45.634;9.420;2023-03-23T08:18:13;98857.19;;;12.82;86.33
53270;BME280;39159;45.634;9.420;2023-03-23T08:20:39;98859.31;;;12.85;86.42
53270;BME280;39159;45.634;9.420;2023-03-23T08:23:06;98850.53;;;13.00;85.68
53270;BME280;39159;45.634;9.420;2023-03-23T08:25:32;98854.84;;;13.19;84.50
53270;BME280;39159;45.634;9.420;2023-03-23T08:27:59;98859.47;;;13.36;85.38
53270;BME280;39159;45.634;9.420;2023-03-23T08:30:27;98865.66;;;13.62;84.84
53270;BME280;39159;45.634;9.420;2023-03-23T08:32:56;98866.63;;;13.66;83.00
53270;BME280;39159;45.634;9.420;2023-03-23T08:35:21;98877.25;;;13.98;81.11
53270;BME280;39159;45.634;9.420;2023-03-23T08:37:47;98877.63;;;14.17;80.48
53270;BME280;39159;45.634;9.420;2023-03-23T08:40:17;98876.66;;;14.13;80.24
53270;BME280;39159;45.634;9.420;2023-03-23T08:42:45;98882.03;;;14.09;79.97
53270;BME280;39159;45.634;9.420;2023-03-23T08:45:14;98883.84;;;14.05;79.32
53270;BME280;39159;45.634;9.420;2023-03-23T08:47:41;98880.34;;;13.96;80.10
53270;BME280;39159;45.634;9.420;2023-03-23T08:50:09;98872.34;;;13.82;80.59
53270;BME280;39159;45.634;9.420;2023-03-23T08:52:36;98874.53;;;13.68;80.68
53270;BME280;39159;45.634;9.420;2023-03-23T08:55:03;98873.56;;;13.64;82.15
53270;BME280;39159;45.634;9.420;2023-03-23T08:57:28;98874.66;;;13.72;82.71
53270;BME280;39159;45.634;9.420;2023-03-23T08:59:54;98886.56;;;13.76;80.49
53270;BME280;39159;45.634;9.420;2023-03-23T09:02:25;98881.47;;;13.95;79.31
53270;BME280;39159;45.634;9.420;2023-03-23T09:04:52;98884.00;;;14.30;78.96
53270;BME280;39159;45.634;9.420;2023-03-23T09:07:18;98881.91;;;14.69;75.92
53270;BME280;39159;45.634;9.420;2023-03-23T09:09:43;98881.97;;;15.15;74.12
53270;BME280;39159;45.634;9.420;2023-03-23T09:12:09;98871.69;;;15.48;71.74
53270;BME280;39159;45.634;9.420;2023-03-23T09:14:36;98874.50;;;15.73;70.85
53270;BME280;39159;45.634;9.420;2023-03-23T09:17:02;98883.53;;;16.10;70.34
53270;BME280;39159;45.634;9.420;2023-03-23T09:19:29;98883.69;;;16.42;68.15
53270;BME280;39159;45.634;9.420;2023-03-23T09:21:54;98883.56;;;16.79;66.66
53270;BME280;39159;45.634;9.420;2023-03-23T09:24:20;98883.44;;;16.88;62.84
53270;BME280;39159;45.634;9.420;2023-03-23T09:26:46;98874.03;;;16.89;62.44
53270;BME280;39159;45.634;9.420;2023-03-23T09:29:12;98878.13;;;16.95;62.74
53270;BME280;39159;45.634;9.420;2023-03-23T09:31:38;98866.06;;;17.15;61.29
53270;BME280;39159;45.634;9.420;2023-03-23T09:34:05;98876.75;;;17.49;60.74
53270;BME280;39159;45.634;9.420;2023-03-23T09:36:31;98869.28;;;17.65;58.67
53270;BME280;39159;45.634;9.420;2023-03-23T09:38:57;98865.63;;;17.77;59.20
53270;BME280;39159;45.634;9.420;2023-03-23T09:50:28;98855.84;;;18.50;54.71
53270;BME280;39159;45.634;9.420;2023-03-23T09:53:17;98847.91;;;18.49;54.61
53270;BME280;39159;45.634;9.420;2023-03-23T09:55:44;98851.69;;;18.60;55.27
53270;BME280;39159;45.634;9.420;2023-03-23T09:58:36;98852.03;;;18.58;54.40
53270;BME280;39159;45.634;9.420;2023-03-23T10:01:10;98844.50;;;18.75;54.15
53270;BME280;39159;45.634;9.420;2023-03-23T10:03:41;98845.66;;;18.93;53.94
53270;BME280;39159;45.634;9.420;2023-03-23T10:06:11;98848.78;;;18.92;53.75
53270;BME280;39159;45.634;9.420;2023-03-23T10:08:41;98847.53;;;18.89;54.16
53270;BME280;39159;45.634;9.420;2023-03-23T10:14:22;98851.16;;;19.13;52.14
53270;BME280;39159;45.634;9.420;2023-03-23T10:17:16;98849.69;;;19.19;52.70
53270;BME280;39159;45.634;9.420;2023-03-23T10:22:32;98841.25;;;19.35;51.74
53270;BME280;39159;45.634;9.420;2023-03-23T10:28:01;98851.28;;;19.66;49.80
53270;BME280;39159;45.634;9.420;2023-03-23T10:30:34;98847.72;;;19.65;51.51
53270;BME280;39159;45.634;9.420;2023-03-23T10:38:36;98832.91;;;19.54;51.11
53270;BME280;39159;45.634;9.420;2023-03-23T10:41:14;98827.88;;;19.86;49.65
53270;BME280;39159;45.634;9.420;2023-03-23T10:43:42;98839.25;;;20.08;47.98
53270;BME280;39159;45.634;9.420;2023-03-23T10:46:29;98824.72;;;19.88;48.56
53270;BME280;39159;45.634;9.420;2023-03-23T10:49:01;98824.16;;;19.75;51.38
53270;BME280;39159;45.634;9.420;2023-03-23T10:51:34;98827.25;;;19.70;50.86
53270;BME280;39159;45.634;9.420;2023-03-23T10:54:01;98825.59;;;19.92;50.78
53270;BME280;39159;45.634;9.420;2023-03-23T10:56:39;98826.63;;;20.11;50.08
53270;BME280;39159;45.634;9.420;2023-03-23T10:59:19;98821.28;;;20.25;50.19
53270;BME280;39159;45.634;9.420;2023-03-23T11:01:50;98819.84;;;20.38;48.12
53270;BME280;39159;45.634;9.420;2023-03-23T11:04:16;98817.50;;;20.40;48.32
53270;BME280;39159;45.634;9.420;2023-03-23T11:06:48;98818.94;;;20.57;47.17
53270;BME280;39159;45.634;9.420;2023-03-23T11:09:32;98817.13;;;20.72;46.43
53270;BME280;39159;45.634;9.420;2023-03-23T11:11:58;98817.47;;;20.67;47.66
53270;BME280;39159;45.634;9.420;2023-03-23T11:14:27;98805.41;;;20.22;48.05
53270;BME280;39159;45.634;9.420;2023-03-23T11:16:59;98807.00;;;20.23;47.93
53270;BME280;39159;45.634;9.420;2023-03-23T11:19:29;98803.84;;;20.55;47.17
53270;BME280;39159;45.634;9.420;2023-03-23T11:24:33;98795.09;;;20.53;45.86
53270;BME280;39159;45.634;9.420;2023-03-23T11:27:00;98793.13;;;20.23;45.30
53270;BME280;39159;45.634;9.420;2023-03-23T11:29:28;98792.97;;;20.08;46.45
53270;BME280;39159;45.634;9.420;2023-03-23T11:34:30;98797.41;;;20.81;46.99
53270;BME280;39159;45.634;9.420;2023-03-23T11:37:06;98788.47;;;20.98;45.54
53270;BME280;39159;45.634;9.420;2023-03-23T11:42:23;98785.56;;;21.28;42.98
53270;BME280;39159;45.634;9.420;2023-03-23T11:44:54;98783.75;;;20.65;44.71
53270;BME280;39159;45.634;9.420;2023-03-23T11:47:39;98784.47;;;20.58;44.92
53270;BME280;39159;45.634;9.420;2023-03-23T11:50:34;98786.22;;;20.06;46.18
53270;BME280;39159;45.634;9.420;2023-03-23T11:58:42;98780.59;;;19.72;47.81
53270;BME280;39159;45.634;9.420;2023-03-23T12:01:54;98772.97;;;19.92;47.47
53270;BME280;39159;45.634;9.420;2023-03-23T12:20:44;98758.16;;;20.45;45.85
53270;BME280;39159;45.634;9.420;2023-03-23T12:23:25;98753.63;;;20.60;45.11
53270;BME280;39159;45.634;9.420;2023-03-23T12:26:06;98747.53;;;20.50;45.29
53270;BME280;39159;45.634;9.420;2023-03-23T12:34:26;98742.09;;;20.58;46.36
53270;BME280;39159;45.634;9.420;2023-03-23T12:37:11;98727.00;;;20.96;46.72
53270;BME280;39159;45.634;9.420;2023-03-23T12:40:05;98726.75;;;21.12;44.79
53270;BME280;39159;45.634;9.420;2023-03-23T12:43:02;98723.63;;;21.17;44.35
53270;BME280;39159;45.634;9.420;2023-03-23T12:48:24;98731.81;;;20.99;45.49
53270;BME280;39159;45.634;9.420;2023-03-23T12:53:38;98727.81;;;21.41;44.31
53270;BME280;39159;45.634;9.420;2023-03-23T12:56:26;98720.34;;;21.52;43.71
53270;BME280;39159;45.634;9.420;2023-03-23T12:59:06;98715.06;;;21.37;44.08
53270;BME280;39159;45.634;9.420;2023-03-23T13:01:45;98712.56;;;21.24;42.87
53270;BME280;39159;45.634;9.420;2023-03-23T13:04:17;98714.13;;;20.70;43.92
53270;BME280;39159;45.634;9.420;2023-03-23T13:06:46;98701.63;;;20.16;45.70
53270;BME280;39159;45.634;9.420;2023-03-23T13:12:03;98695.78;;;19.91;46.76
53270;BME280;39159;45.634;9.420;2023-03-23T13:20:04;98678.84;;;20.33;47.04
53270;BME280;39159;45.634;9.420;2023-03-23T13:25:48;98680.06;;;20.73;47.02
53270;BME280;39159;45.634;9.420;2023-03-23T13:28:18;98678.22;;;20.88;45.22
53270;BME280;39159;45.634;9.420;2023-03-23T13:31:00;98682.47;;;20.78;45.27
53270;BME280;39159;45.634;9.420;2023-03-23T13:33:34;98683.00;;;20.50;46.23
53270;BME280;39159;45.634;9.420;2023-03-23T13:36:28;98680.00;;;20.28;46.67
53270;BME280;39159;45.634;9.420;2023-03-23T13:38:56;98672.69;;;20.50;45.84
53270;BME280;39159;45.634;9.420;2023-03-23T13:41:24;98667.88;;;20.81;45.62
53270;BME280;39159;45.634;9.420;2023-03-23T13:43:51;98668.09;;;21.10;45.86
53270;BME280;39159;45.634;9.420;2023-03-23T13:46:27;98670.63;;;21.33;45.34
53270;BME280;39159;45.634;9.420;2023-03-23T13:51:46;98662.28;;;21.33;45.71
53270;BME280;39159;45.634;9.420;2023-03-23T13:57:01;98660.66;;;21.28;45.84
53270;BME280;39159;45.634;9.420;2023-03-23T13:59:48;98651.44;;;21.14;45.47
53270;BME280;39159;45.634;9.420;2023-03-23T14:02:36;98647.97;;;21.27;45.25
53270;BME280;39159;45.634;9.420;2023-03-23T14:05:11;98648.72;;;21.17;46.53
53270;BME280;39159;45.634;9.420;2023-03-23T14:07:55;98628.56;;;21.31;43.85
53270;BME280;39159;45.634;9.420;2023-03-23T14:10:21;98638.41;;;21.18;44.28
53270;BME280;39159;45.634;9.420;2023-03-23T14:12:50;98632.66;;;20.89;45.25
53270;BME280;39159;45.634;9.420;2023-03-23T14:15:17;98630.25;;;20.87;45.04
53270;BME280;39159;45.634;9.420;2023-03-23T14:17:44;98631.13;;;20.54;44.95
53270;BME280;39159;45.634;9.420;2023-03-23T14:20:32;98623.63;;;20.55;46.03
53270;BME280;39159;45.634;9.420;2023-03-23T14:22:59;98636.44;;;20.66;46.83
53270;BME280;39159;45.634;9.420;2023-03-23T14:25:30;98620.44;;;20.53;45.50
53270;BME280;39159;45.634;9.420;2023-03-23T14:27:59;98626.50;;;20.24;46.02
53270;BME280;39159;45.634;9.420;2023-03-23T14:30:27;98629.47;;;20.05;46.54
53270;BME280;39159;45.634;9.420;2023-03-23T14:33:06;98625.97;;;20.08;46.91
53270;BME280;39159;45.634;9.420;2023-03-23T14:35:36;98628.13;;;20.29;45.65
53270;BME280;39159;45.634;9.420;2023-03-23T14:38:04;98624.56;;;20.28;45.95
53270;BME280;39159;45.634;9.420;2023-03-23T14:40:30;98622.22;;;20.31;44.88
53270;BME280;39159;45.634;9.420;2023-03-23T14:42:56;98617.50;;;20.35;45.07
53270;BME280;39159;45.634;9.420;2023-03-23T14:45:23;98618.50;;;20.16;44.77
53270;BME280;39159;45.634;9.420;2023-03-23T14:48:00;98624.81;;;20.13;45.28
53270;BME280;39159;45.634;9.420;2023-03-23T14:50:30;98618.66;;;20.30;45.78
53270;BME280;39159;45.634;9.420;2023-03-23T14:53:30;98616.31;;;20.36;45.33
53270;BME280;39159;45.634;9.420;2023-03-23T14:56:00;98620.25;;;20.31;46.14
53270;BME280;39159;45.634;9.420;2023-03-23T14:58:27;98613.53;;;20.32;45.99
53270;BME280;39159;45.634;9.420;2023-03-23T15:01:08;98624.94;;;20.23;45.71
53270;BME280;39159;45.634;9.420;2023-03-23T15:03:37;98617.53;;;19.97;45.64